Time;durP1;ratioP1;P1;durP2;ratioP2;P2;SDS_P1;SDS_P2;PMS_P1;PMS_P2;Temp;Humidity;BMP_temperature;BMP_pressure;BME280_temperature;BME280_humidity;BME280_pressure;Samples;Min_cycle;Max_cycle;Signal;HPM_P1;HPM_P2
2023/01/17 00:02:29;;;;;;;;;62.00;49.00;;;;;-146.39;100.00;62182.44;6315739;20;3635686;-58
2023/01/17 00:10:42;;;;;;;;;67.00;49.00;;;;;-146.39;100.00;62182.44;6312354;20;3619083;-59
2023/01/17 00:13:11;;;;;;;;;67.00;53.67;;;;;-146.39;100.00;62182.44;6313533;20;3623555;-59
2023/01/17 00:15:41;;;;;;;;;67.33;52.67;;;;;-146.39;100.00;62182.44;6314088;20;2870540;-59
2023/01/17 00:18:10;;;;;;;;;74.00;55.00;;;;;-146.39;100.00;62182.44;6311546;20;3624655;-59
2023/01/17 00:26:31;;;;;;;;;68.67;51.67;;;;;-146.39;100.00;62182.44;6280844;20;3647138;-59
2023/01/17 01:34:27;;;;;;;;;76.67;57.33;;;;;-146.39;100.00;62182.44;6311229;20;3662790;-58
2023/01/17 01:36:56;;;;;;;;;75.67;58.33;;;;;-146.39;100.00;62182.44;6308805;20;3631531;-59
2023/01/17 01:39:26;;;;;;;;;72.67;56.33;;;;;-146.39;100.00;62182.44;6308608;20;2876726;-59
2023/01/17 01:41:55;;;;;;;;;69.33;55.00;;;;;-146.39;100.00;62182.44;6311289;20;3611854;-58
2023/01/17 01:44:49;;;;;;;;;72.67;56.00;;;;;-146.39;100.00;62182.44;6311350;20;3614960;-58
2023/01/17 01:47:35;;;;;;;;;76.00;57.33;;;;;-146.39;100.00;62182.44;6308921;20;3617013;-58
2023/01/17 01:50:09;;;;;;;;;74.00;56.00;;;;;-146.39;100.00;62182.44;6309013;20;3624377;-59
2023/01/17 01:52:46;;;;;;;;;68.67;51.67;;;;;-146.39;100.00;62182.44;6311625;20;3625385;-58
2023/01/17 01:55:33;;;;;;;;;79.33;60.33;;;;;-146.39;100.00;62182.44;6309870;20;3634666;-59
2023/01/17 01:58:20;;;;;;;;;74.67;57.67;;;;;-146.39;100.00;62182.44;6313216;20;3632532;-59
2023/01/17 02:00:50;;;;;;;;;78.33;58.33;;;;;-146.39;100.00;62182.44;6307662;20;3626323;-58
2023/01/17 02:03:29;;;;;;;;;84.33;62.00;;;;;-146.39;100.00;62182.44;6314741;20;3648401;-58
2023/01/17 02:06:28;;;;;;;;;79.67;62.33;;;;;-146.39;100.00;62182.44;6309530;20;3627331;-59
2023/01/17 02:09:08;;;;;;;;;77.00;60.67;;;;;-146.39;100.00;62182.44;6312712;20;2868277;-58
2023/01/17 02:11:40;;;;;;;;;72.67;55.00;;;;;-146.39;100.00;62182.44;6315588;20;3633712;-58
2023/01/17 02:14:21;;;;;;;;;73.33;53.00;;;;;-146.39;100.00;62182.44;6317145;20;3654434;-58
2023/01/17 02:17:45;;;;;;;;;79.33;58.67;;;;;-146.39;100.00;62182.44;6280509;20;3635689;-58
2023/01/17 02:21:12;;;;;;;;;68.33;52.33;;;;;-146.39;100.00;62182.44;6311674;20;3627396;-59
2023/01/17 02:24:21;;;;;;;;;78.33;57.00;;;;;-146.39;100.00;62182.44;6316421;20;3639841;-56
2023/01/17 02:27:23;;;;;;;;;81.33;60.33;;;;;-146.39;100.00;62182.44;6314580;20;3646109;-57
2023/01/17 02:30:30;;;;;;;;;91.33;71.33;;;;;-146.39;100.00;62182.44;6316455;20;3665868;-57
2023/01/17 02:33:28;;;;;;;;;74.33;55.00;;;;;-146.39;100.00;62182.44;6284649;20;3642954;-58
2023/01/17 02:36:31;;;;;;;;;73.00;55.00;;;;;-146.39;100.00;62182.44;6314868;20;3626309;-59
2023/01/17 02:39:16;;;;;;;;;74.67;56.00;;;;;-146.39;100.00;62182.44;6314411;20;2871107;-59
2023/01/17 02:41:57;;;;;;;;;73.00;55.00;;;;;-146.39;100.00;62182.44;6312759;20;2869105;-58
2023/01/17 02:44:26;;;;;;;;;70.00;55.00;;;;;-146.39;100.00;62182.44;6313764;20;3624366;-54
2023/01/17 02:46:58;;;;;;;;;79.00;57.00;;;;;-146.39;100.00;62182.44;6315464;20;3646205;-56
2023/01/17 02:49:30;;;;;;;;;236.33;187.00;;;;;-146.39;100.00;62182.44;6316193;20;3703416;-57
2023/01/17 02:52:36;;;;;;;;;80.67;61.00;;;;;-146.39;100.00;62182.44;6281533;20;3650314;-57
2023/01/17 02:56:00;;;;;;;;;66.67;52.00;;;;;-146.39;100.00;62182.44;6315468;20;3624381;-55
2023/01/17 02:58:57;;;;;;;;;72.00;53.00;;;;;-146.39;100.00;62182.44;6309934;20;3637753;-58
2023/01/17 03:02:22;;;;;;;;;69.00;53.00;;;;;-146.39;100.00;62182.44;6309747;20;2880675;-58
2023/01/17 03:05:25;;;;;;;;;67.67;53.33;;;;;-146.39;100.00;62182.44;6314754;20;3635703;-58
2023/01/17 03:07:56;;;;;;;;;65.67;52.00;;;;;-146.39;100.00;62182.44;6312030;20;2883725;-56
2023/01/17 03:10:26;;;;;;;;;67.67;51.67;;;;;-146.39;100.00;62182.44;6309690;20;3629442;-58
2023/01/17 03:13:00;;;;;;;;;60.50;51.00;;;;;-146.39;100.00;62182.44;6315502;20;2868001;-58
2023/01/17 03:15:29;;;;;;;;;57.00;46.00;;;;;-146.39;100.00;62182.44;6282434;20;2866338;-57
2023/01/17 03:18:05;;;;;;;;;54.00;43.00;;;;;-146.39;100.00;62182.44;6286926;20;2863840;-58
2023/01/17 03:20:35;;;;;;;;;61.33;46.67;;;;;-146.39;100.00;62182.44;6276538;20;3645095;-57
2023/01/17 03:23:04;;;;;;;;;57.00;46.00;;;;;-146.39;100.00;62182.44;6315351;20;2851316;-57
2023/01/17 03:25:33;;;;;;;;;63.33;46.67;;;;;-146.39;100.00;62182.44;6285803;20;3623192;-57
2023/01/17 03:28:01;;;;;;;;;54.00;42.50;;;;;-146.39;100.00;62182.44;6311076;20;2489869;-57
2023/01/17 03:30:30;;;;;;;;;56.50;44.00;;;;;-146.39;100.00;62182.44;6282158;20;2851329;-58
2023/01/17 03:32:59;;;;;;;;;49.00;41.50;;;;;-146.39;100.00;62182.44;6284893;20;2846132;-55
2023/01/17 03:35:28;;;;;;;;;46.50;39.00;;;;;-146.39;100.00;62182.44;6286485;20;2859701;-58
2023/01/17 03:37:57;;;;;;;;;56.00;41.67;;;;;-146.39;100.00;62182.44;6282672;20;2869297;-56
2023/01/17 03:40:26;;;;;;;;;55.00;40.00;;;;;-146.39;100.00;62182.44;6314782;20;2861790;-57
2023/01/17 03:42:55;;;;;;;;;56.67;42.00;;;;;-146.39;100.00;62182.44;6280061;20;3620108;-58
2023/01/17 03:45:24;;;;;;;;;29.50;26.00;;;;;-146.39;100.00;62182.44;6312168;20;2845154;-56
2023/01/17 03:47:55;;;;;;;;;50.00;41.00;;;;;-146.39;100.00;62182.44;6285519;20;2841960;-57
2023/01/17 03:50:25;;;;;;;;;51.33;38.67;;;;;-146.39;100.00;62182.44;6282078;20;2878506;-58
2023/01/17 03:52:54;;;;;;;;;50.00;40.50;;;;;-146.39;100.00;62182.44;6316904;20;2863883;-56
2023/01/17 03:55:23;;;;;;;;;56.67;45.00;;;;;-146.39;100.00;62182.44;6283533;20;2863970;-58
2023/01/17 03:57:52;;;;;;;;;52.50;43.00;;;;;-146.39;100.00;62182.44;6316667;20;2874264;-58
2023/01/17 04:00:21;;;;;;;;;54.00;42.50;;;;;-146.39;100.00;62182.44;6283388;20;2869035;-58
2023/01/17 04:02:50;;;;;;;;;52.00;39.00;;;;;-146.39;100.00;62182.44;6282420;20;2857569;-59
2023/01/17 04:05:19;;;;;;;;;44.33;38.67;;;;;-146.39;100.00;62182.44;6282818;20;2863905;-56
2023/01/17 04:07:49;;;;;;;;;39.67;36.00;;;;;-146.39;100.00;62182.44;6312347;20;2871237;-58
2023/01/17 04:10:20;;;;;;;;;42.67;34.00;;;;;-146.39;100.00;62182.44;6309322;20;2879656;-58
2023/01/17 04:12:49;;;;;;;;;38.67;35.33;;;;;-146.39;100.00;62182.44;6315237;20;3611738;-57
2023/01/17 04:15:18;;;;;;;;;37.50;32.00;;;;;-146.39;100.00;62182.44;6312490;20;2834667;-57
2023/01/17 04:17:46;;;;;;;;;40.50;35.00;;;;;-146.39;100.00;62182.44;6284181;20;2857633;-55
2023/01/17 04:20:36;;;;;;;;;39.33;34.67;;;;;-146.39;100.00;62182.44;6277746;20;3612802;-59
2023/01/17 04:23:06;;;;;;;;;47.33;35.33;;;;;-146.39;100.00;62182.44;6314518;20;3626466;-58
2023/01/17 04:25:36;;;;;;;;;41.33;37.33;;;;;-146.39;100.00;62182.44;6312475;20;3606673;-57
2023/01/17 04:28:05;;;;;;;;;36.67;35.00;;;;;-146.39;100.00;62182.44;6315599;20;3603392;-58
2023/01/17 04:30:34;;;;;;;;;45.67;36.67;;;;;-146.39;100.00;62182.44;6272352;20;3616933;-57
2023/01/17 04:33:04;;;;;;;;;37.67;36.00;;;;;-146.39;100.00;62182.44;6315097;20;2861950;-58
2023/01/17 04:35:33;;;;;;;;;41.00;35.50;;;;;-146.39;100.00;62182.44;6309530;20;2855492;-58
2023/01/17 04:38:03;;;;;;;;;39.67;34.33;;;;;-146.39;100.00;62182.44;6285980;20;3607555;-58
2023/01/17 04:40:31;;;;;;;;;33.33;33.33;;;;;-146.39;100.00;62182.44;6310087;20;3597236;-58
2023/01/17 04:43:00;;;;;;;;;39.00;34.00;;;;;-146.39;100.00;62182.44;6271955;20;2844031;-55
2023/01/17 04:45:29;;;;;;;;;47.67;39.67;;;;;-146.39;100.00;62182.44;6281179;20;2857745;-58
2023/01/17 04:48:06;;;;;;;;;46.67;37.67;;;;;-146.39;100.00;62182.44;6317620;20;3621615;-57
2023/01/17 04:50:35;;;;;;;;;43.00;34.33;;;;;-146.39;100.00;62182.44;6279597;20;3614887;-58
2023/01/17 04:53:05;;;;;;;;;42.00;36.33;;;;;-146.39;100.00;62182.44;6313665;20;3602427;-59
2023/01/17 04:55:34;;;;;;;;;38.67;35.00;;;;;-146.39;100.00;62182.44;6313087;20;3608169;-58
2023/01/17 04:58:03;;;;;;;;;41.67;31.67;;;;;-146.39;100.00;62182.44;6277466;20;3624216;-57
2023/01/17 05:00:33;;;;;;;;;42.67;36.00;;;;;-146.39;100.00;62182.44;6310843;20;3626373;-58
2023/01/17 05:03:02;;;;;;;;;32.33;26.33;;;;;-146.39;100.00;62182.44;6310254;20;2852453;-58
2023/01/17 05:05:31;;;;;;;;;42.33;36.00;;;;;-146.39;100.00;62182.44;6311334;20;3616919;-58
2023/01/17 05:08:00;;;;;;;;;46.00;36.67;;;;;-146.39;100.00;62182.44;6282018;20;2870152;-58
2023/01/17 05:10:29;;;;;;;;;38.33;34.00;;;;;-146.39;100.00;62182.44;6309813;20;3606690;-58
2023/01/17 05:12:59;;;;;;;;;37.00;35.00;;;;;-146.39;100.00;62182.44;6280850;20;3612818;-58
2023/01/17 05:15:29;;;;;;;;;37.67;31.33;;;;;-146.39;100.00;62182.44;6311896;20;3609798;-58
2023/01/17 05:17:59;;;;;;;;;38.33;32.00;;;;;-146.39;100.00;62182.44;6311130;20;3606557;-58
2023/01/17 05:20:28;;;;;;;;;31.67;27.00;;;;;-146.39;100.00;62182.44;6313037;20;2863956;-58
2023/01/17 05:22:58;;;;;;;;;39.00;29.33;;;;;-146.39;100.00;62182.44;6307863;20;3620182;-58
2023/01/17 05:25:30;;;;;;;;;29.00;25.50;;;;;-146.39;100.00;62182.44;6311182;20;2840320;-56
2023/01/17 05:28:00;;;;;;;;;26.00;24.50;;;;;-146.39;100.00;62182.44;6281386;20;2833703;-56
2023/01/17 05:30:32;;;;;;;;;23.33;21.67;;;;;-146.39;100.00;62182.44;6275701;20;3565074;-57
2023/01/17 05:33:00;;;;;;;;;31.50;21.00;;;;;-146.39;100.00;62182.44;6278897;20;2500361;-59
2023/01/17 05:35:33;;;;;;;;;25.00;23.00;;;;;-146.39;100.00;62182.44;6282684;20;2500406;-57
2023/01/17 05:38:01;;;;;;;;;26.00;21.50;;;;;-146.39;100.00;62182.44;6277269;20;2500751;-56
2023/01/17 05:40:32;;;;;;;;;26.00;22.00;;;;;-146.39;100.00;62182.44;6270741;20;2498303;-58
2023/01/17 05:43:04;;;;;;;;;22.67;15.67;;;;;-146.39;100.00;62182.44;6279022;20;3550265;-58
2023/01/17 05:45:33;;;;;;;;;27.50;21.50;;;;;-146.39;100.00;62182.44;6280719;20;2834666;-58
2023/01/17 05:48:03;;;;;;;;;16.00;16.00;;;;;-146.39;100.00;62182.44;6283749;20;2829432;-58
2023/01/17 05:50:37;;;;;;;;;25.00;22.00;;;;;-146.39;100.00;62182.44;6279777;20;3577452;-59
2023/01/17 05:53:12;;;;;;;;;19.00;13.00;;;;;-146.39;100.00;62182.44;6318545;20;2691928;-59
2023/01/17 05:55:42;;;;;;;;;21.33;18.67;;;;;-146.39;100.00;62182.44;6309746;20;3560664;-58
2023/01/17 05:58:17;;;;;;;;;24.00;20.00;;;;;-146.39;100.00;62182.44;6284629;20;2775336;-58
2023/01/17 06:00:47;;;;;;;;;21.33;20.00;;;;;-146.39;100.00;62182.44;6272965;20;3579472;-56
2023/01/17 06:03:16;;;;;;;;;25.00;22.00;;;;;-146.39;100.00;62182.44;6272461;20;2500298;-56
2023/01/17 06:05:44;;;;;;;;;22.00;18.50;;;;;-146.39;100.00;62182.44;6278547;20;2500379;-57
2023/01/17 06:08:12;;;;;;;;;24.00;19.00;;;;;-146.39;100.00;62182.44;6281825;20;2824284;-58
2023/01/17 06:10:41;;;;;;;;;20.33;17.33;;;;;-146.39;100.00;62182.44;6276109;20;3569027;-60
2023/01/17 06:13:14;;;;;;;;;17.67;16.00;;;;;-146.39;100.00;62182.44;6283869;20;3554437;-60
2023/01/17 06:15:43;;;;;;;;;17.33;15.67;;;;;-146.39;100.00;62182.44;6277108;20;3534681;-59
2023/01/17 06:18:15;;;;;;;;;18.00;15.00;;;;;-146.39;100.00;62182.44;6311993;20;3539854;-59
2023/01/17 06:20:43;;;;;;;;;17.00;14.00;;;;;-146.39;100.00;62182.44;6303338;20;2814973;-59
2023/01/17 06:23:14;;;;;;;;;20.33;14.33;;;;;-146.39;100.00;62182.44;6282023;20;2800323;-58
2023/01/17 06:25:46;;;;;;;;;20.00;15.67;;;;;-146.39;100.00;62182.44;6309969;20;3549222;-59
2023/01/17 06:28:19;;;;;;;;;14.67;14.33;;;;;-146.39;100.00;62182.44;6276254;20;3542076;-59
2023/01/17 06:30:48;;;;;;;;;12.00;10.00;;;;;-146.39;100.00;62182.44;6306627;20;2786809;-60
2023/01/17 06:33:16;;;;;;;;;21.00;20.00;;;;;-146.39;100.00;62182.44;6282757;20;2835715;-60
2023/01/17 06:35:51;;;;;;;;;26.00;23.00;;;;;-146.39;100.00;62182.44;6277137;20;2837828;-59
2023/01/17 06:38:20;;;;;;;;;13.67;12.67;;;;;-146.39;100.00;62182.44;6279413;20;2790050;-59
2023/01/17 06:40:49;;;;;;;;;16.00;15.00;;;;;-146.39;100.00;62182.44;6307349;20;3553464;-58
2023/01/17 06:43:16;;;;;;;;;14.00;10.00;;;;;-146.39;100.00;62182.44;6313125;20;2789897;-60
2023/01/17 06:45:44;;;;;;;;;12.00;12.00;;;;;-146.39;100.00;62182.44;6280220;20;2778425;-59
2023/01/17 06:48:12;;;;;;;;;12.00;10.00;;;;;-146.39;100.00;62182.44;6282225;20;2784668;-58
2023/01/17 06:50:40;;;;;;;;;9.00;9.00;;;;;-146.39;100.00;62182.44;6279314;20;2754537;-59
2023/01/17 06:53:09;;;;;;;;;10.00;10.00;;;;;-146.39;100.00;62182.44;6284726;20;2769733;-57
2023/01/17 06:55:39;;;;;;;;;15.00;13.33;;;;;-146.39;100.00;62182.44;6278480;20;2792012;-63
2023/01/17 06:58:10;;;;;;;;;19.17;15.50;;;;;-146.39;100.00;62182.44;6337041;20;2835804;-63
2023/01/17 07:00:37;;;;;;;;;11.50;11.00;;;;;-146.39;100.00;62182.44;6316693;20;2783646;-64
2023/01/17 07:03:20;;;;;;;;;17.80;10.40;;;;;-146.39;100.00;62182.44;6310060;20;2796256;-64
2023/01/17 07:05:49;;;;;;;;;12.00;10.00;;;;;-146.39;100.00;62182.44;6283607;20;2777418;-64
2023/01/17 07:08:20;;;;;;;;;11.29;9.71;;;;;-146.39;100.00;62182.44;6329238;20;1812832;-64
2023/01/17 07:10:48;;;;;;;;;13.00;12.00;;;;;-146.39;100.00;62182.44;6313347;20;2796169;-63
2023/01/17 07:13:16;;;;;;;;;11.00;9.50;;;;;-146.39;100.00;62182.44;6290346;20;2763941;-63
2023/01/17 07:15:44;;;;;;;;;9.00;8.50;;;;;-146.39;100.00;62182.44;6284969;20;2754462;-63
2023/01/17 07:18:12;;;;;;;;;12.00;10.00;;;;;-146.39;100.00;62182.44;6285270;20;2783676;-64
2023/01/17 07:20:42;;;;;;;;;8.50;7.50;;;;;-146.39;100.00;62182.44;6283110;20;2746154;-64
2023/01/17 07:23:10;;;;;;;;;10.00;7.50;;;;;-146.39;100.00;62182.44;6287203;20;2769035;-63
2023/01/17 07:25:38;;;;;;;;;17.00;9.00;;;;;-146.39;100.00;62182.44;6288143;20;2765002;-64
2023/01/17 07:28:05;;;;;;;;;15.00;12.00;;;;;-146.39;100.00;62182.44;6290072;20;2785705;-64
2023/01/17 07:30:35;;;;;;;;;10.20;9.00;;;;;-146.39;100.00;62182.44;6311975;20;2774364;-63
2023/01/17 07:33:03;;;;;;;;;10.00;10.00;;;;;-146.39;100.00;62182.44;6282823;20;2781670;-64
2023/01/17 07:35:35;;;;;;;;;13.25;9.50;;;;;-146.39;100.00;62182.44;6324436;20;2511038;-64
2023/01/17 07:38:04;;;;;;;;;12.00;9.00;;;;;-146.39;100.00;62182.44;6319479;20;2760084;-64
2023/01/17 07:40:34;;;;;;;;;15.40;9.80;;;;;-146.39;100.00;62182.44;6305560;20;2782670;-64
2023/01/17 07:43:14;;;;;;;;;11.20;7.80;;;;;-146.39;100.00;62182.44;6313041;20;2749428;-64
2023/01/17 07:45:50;;;;;;;;;13.00;11.00;;;;;-146.39;100.00;62182.44;6313078;20;2789879;-64
2023/01/17 07:48:22;;;;;;;;;8.00;8.00;;;;;-146.39;100.00;62182.44;6285114;20;2737821;-64
2023/01/17 07:50:56;;;;;;;;;12.57;11.29;;;;;-146.39;100.00;62182.44;6349624;20;1816961;-63
2023/01/17 07:53:31;;;;;;;;;10.20;9.20;;;;;-146.39;100.00;62182.44;6361045;20;1812806;-63
2023/01/17 07:56:06;;;;;;;;;11.00;11.00;;;;;-146.39;100.00;62182.44;6285577;20;2772311;-64
2023/01/17 07:58:35;;;;;;;;;11.00;8.00;;;;;-146.39;100.00;62182.44;6281630;20;2766969;-64
2023/01/17 08:01:09;;;;;;;;;10.00;10.00;;;;;-146.39;100.00;62182.44;6278653;20;2785700;-64
2023/01/17 08:03:40;;;;;;;;;8.50;7.50;;;;;-146.39;100.00;62182.44;6284848;20;2743083;-64
2023/01/17 08:06:23;;;;;;;;;9.80;8.80;;;;;-146.39;100.00;62182.44;6340993;20;2748246;-65
2023/01/17 08:08:57;;;;;;;;;14.00;14.00;;;;;-146.39;100.00;62182.44;6312537;20;2786823;-65
2023/01/17 08:11:27;;;;;;;;;10.00;10.00;;;;;-146.39;100.00;62182.44;6311442;20;2789880;-65
2023/01/17 08:13:58;;;;;;;;;12.80;10.00;;;;;-146.39;100.00;62182.44;6306783;20;2791947;-65
2023/01/17 08:16:29;;;;;;;;;11.14;9.00;;;;;-146.39;100.00;62182.44;6325190;20;1801362;-65
2023/01/17 08:18:57;;;;;;;;;7.00;7.00;;;;;-146.39;100.00;62182.44;6315062;20;2743015;-64
2023/01/17 08:21:27;;;;;;;;;12.20;10.80;;;;;-146.39;100.00;62182.44;6335549;20;2791946;-64
2023/01/17 08:23:54;;;;;;;;;4.00;4.00;;;;;-146.39;100.00;62182.44;6295056;20;2754456;-64
2023/01/17 08:26:22;;;;;;;;;10.50;9.00;;;;;-146.39;100.00;62182.44;6289197;20;2755561;-65
2023/01/17 08:28:59;;;;;;;;;16.00;16.00;;;;;-146.39;100.00;62182.44;6281571;20;2812906;-64
2023/01/17 08:31:33;;;;;;;;;16.00;13.00;;;;;-146.39;100.00;62182.44;6315956;20;2796107;-64
2023/01/17 08:34:02;;;;;;;;;7.00;7.00;;;;;-146.39;100.00;62182.44;6302595;20;1819148;-64
2023/01/17 08:36:33;;;;;;;;;11.71;11.71;;;;;-146.39;100.00;62182.44;6351714;20;1814888;-65
2023/01/17 08:39:01;;;;;;;;;11.50;7.00;;;;;-146.39;100.00;62182.44;6317196;20;2763968;-64
2023/01/17 08:41:31;;;;;;;;;9.00;9.00;;;;;-146.39;100.00;62182.44;6301317;20;1806666;-65
2023/01/17 08:43:58;;;;;;;;;11.00;9.00;;;;;-146.39;100.00;62182.44;6311382;20;2758642;-65
2023/01/17 08:46:26;;;;;;;;;16.00;10.00;;;;;-146.39;100.00;62182.44;6281516;20;2798321;-64
2023/01/17 08:49:01;;;;;;;;;13.00;11.00;;;;;-146.39;100.00;62182.44;6279986;20;2785697;-62
2023/01/17 08:51:31;;;;;;;;;9.50;9.50;;;;;-146.39;100.00;62182.44;6295368;20;1809625;-63
2023/01/17 08:53:59;;;;;;;;;7.50;6.50;;;;;-146.39;100.00;62182.44;6315578;20;2736768;-62
2023/01/17 08:56:27;;;;;;;;;14.50;9.00;;;;;-146.39;100.00;62182.44;6314893;20;2753394;-62
2023/01/17 08:58:54;;;;;;;;;11.00;11.00;;;;;-146.39;100.00;62182.44;6284126;20;2796138;-63
2023/01/17 09:01:23;;;;;;;;;9.00;9.00;;;;;-146.39;100.00;62182.44;6306002;20;1817119;-63
2023/01/17 09:03:53;;;;;;;;;9.00;9.00;;;;;-146.39;100.00;62182.44;6336933;20;2758614;-63
2023/01/17 09:06:21;;;;;;;;;12.00;9.00;;;;;-146.39;100.00;62182.44;6315922;20;2769100;-63
2023/01/17 09:08:53;;;;;;;;;13.50;9.00;;;;;-146.39;100.00;62182.44;6279773;20;2770106;-63
2023/01/17 09:11:22;;;;;;;;;9.00;9.00;;;;;-146.39;100.00;62182.44;6300397;20;1807650;-63
2023/01/17 09:13:49;;;;;;;;;8.00;8.00;;;;;-146.39;100.00;62182.44;6317672;20;2741984;-62
2023/01/17 09:16:19;;;;;;;;;9.00;9.00;;;;;-146.39;100.00;62182.44;6308414;20;2735758;-63
2023/01/17 09:18:47;;;;;;;;;12.50;9.50;;;;;-146.39;100.00;62182.44;6313166;20;2775332;-64
2023/01/17 09:21:17;;;;;;;;;15.00;13.50;;;;;-146.39;100.00;62182.44;6283515;20;2789330;-63
2023/01/17 09:23:45;;;;;;;;;12.50;10.50;;;;;-146.39;100.00;62182.44;6283827;20;2781545;-63
2023/01/17 09:26:27;;;;;;;;;31.00;26.00;;;;;-146.39;100.00;62182.44;6278290;20;2858612;-62
2023/01/17 09:28:57;;;;;;;;;12.50;12.50;;;;;-146.39;100.00;62182.44;6281152;20;2798281;-62
2023/01/17 09:31:27;;;;;;;;;10.60;10.60;;;;;-146.39;100.00;62182.44;6308057;20;2794051;-63
2023/01/17 09:33:57;;;;;;;;;15.00;13.33;;;;;-146.39;100.00;62182.44;6278774;20;3527343;-63
2023/01/17 09:36:27;;;;;;;;;12.00;10.00;;;;;-146.39;100.00;62182.44;6309654;20;2784646;-63
2023/01/17 09:39:00;;;;;;;;;13.00;9.00;;;;;-146.39;100.00;62182.44;6284360;20;2777375;-63
2023/01/17 09:41:53;;;;;;;;;13.00;8.00;;;;;-146.39;100.00;62182.44;6279626;20;2758756;-62
2023/01/17 09:45:17;;;;;;;;;7.83;6.00;;;;;-146.39;100.00;62182.44;6336646;20;1794051;-63
2023/01/17 09:47:51;;;;;;;;;12.60;9.80;;;;;-146.39;100.00;62182.44;6303732;20;2781577;-63
2023/01/17 09:50:43;;;;;;;;;12.00;8.00;;;;;-146.39;100.00;62182.44;6278905;20;2769105;-63
2023/01/17 09:53:21;;;;;;;;;9.00;9.00;;;;;-146.39;100.00;62182.44;6275747;20;2746166;-63
2023/01/17 09:56:05;;;;;;;;;13.20;8.80;;;;;-146.39;100.00;62182.44;6302449;20;2753516;-63
2023/01/17 09:59:14;;;;;;;;;7.00;7.00;;;;;-146.39;100.00;62182.44;6313472;20;2738900;-63
2023/01/17 10:02:06;;;;;;;;;7.00;7.00;;;;;-146.39;100.00;62182.44;6308433;20;2743090;-63
2023/01/17 10:05:15;;;;;;;;;8.00;7.00;;;;;-146.39;100.00;62182.44;6281967;20;2746200;-63
2023/01/17 10:08:55;;;;;;;;;6.00;3.25;;;;;-146.39;100.00;62182.44;6328108;20;1812006;-63
2023/01/17 10:11:38;;;;;;;;;7.00;7.00;;;;;-146.39;100.00;62182.44;6310591;20;2738840;-61
2023/01/17 10:14:42;;;;;;;;;9.50;6.50;;;;;-146.39;100.00;62182.44;6311741;20;2746140;-62
2023/01/17 10:18:03;;;;;;;;;6.00;4.00;;;;;-146.39;100.00;62182.44;6274804;20;2756593;-61
2023/01/17 10:20:51;;;;;;;;;5.00;5.00;;;;;-146.39;100.00;62182.44;6279678;20;2745169;-62
2023/01/17 10:23:41;;;;;;;;;5.50;4.00;;;;;-146.39;100.00;62182.44;6308271;20;2752525;-62
2023/01/17 10:26:24;;;;;;;;;4.00;4.00;;;;;-146.39;100.00;62182.44;6277198;20;2741989;-62
2023/01/17 10:28:59;;;;;;;;;10.00;7.00;;;;;-146.39;100.00;62182.44;6313188;20;2750289;-61
2023/01/17 10:31:49;;;;;;;;;4.00;4.00;;;;;-146.39;100.00;62182.44;6288528;20;2751430;-62
2023/01/17 10:34:50;;;;;;;;;3.00;3.00;;;;;-146.39;100.00;62182.44;6287274;20;2736854;-61
2023/01/17 10:37:49;;;;;;;;;5.50;4.00;;;;;-146.39;100.00;62182.44;6316607;20;2752492;-62
2023/01/17 10:40:50;;;;;;;;;5.00;5.00;;;;;-146.39;100.00;62182.44;6283665;20;2748191;-61
2023/01/17 10:44:03;;;;;;;;;3.00;3.00;;;;;-146.39;100.00;62182.44;6286125;20;2741940;-62
2023/01/17 10:46:42;;;;;;;;;5.50;4.00;;;;;-146.39;100.00;62182.44;6282394;20;2747204;-62
2023/01/17 10:49:21;;;;;;;;;1.00;1.00;;;;;-146.39;100.00;62182.44;6302083;20;1803363;-62
2023/01/17 10:52:37;;;;;;;;;4.00;3.00;;;;;-146.39;100.00;62182.44;6334178;20;1812976;-62
2023/01/17 10:55:42;;;;;;;;;4.00;2.50;;;;;-146.39;100.00;62182.44;6315846;20;2746150;-61
2023/01/17 10:58:14;;;;;;;;;8.00;7.00;;;;;-146.39;100.00;62182.44;6286904;20;2739988;-62
2023/01/17 11:01:31;;;;;;;;;8.00;4.00;;;;;-146.39;100.00;62182.44;6284636;20;2746212;-62
2023/01/17 11:03:59;;;;;;;;;4.50;4.50;;;;;-146.39;100.00;62182.44;6285773;20;2738895;-62
2023/01/17 11:06:27;;;;;;;;;7.00;7.00;;;;;-146.39;100.00;62182.44;6282818;20;2733729;-62
2023/01/17 11:09:01;;;;;;;;;5.50;4.00;;;;;-146.39;100.00;62182.44;6304491;20;1817207;-63
2023/01/17 11:11:35;;;;;;;;;6.50;5.00;;;;;-146.39;100.00;62182.44;6314443;20;2748234;-61
2023/01/17 11:14:18;;;;;;;;;8.50;5.00;;;;;-146.39;100.00;62182.44;6285883;20;2739890;-64
2023/01/17 11:17:00;;;;;;;;;4.75;3.00;;;;;-146.39;100.00;62182.44;6301179;20;1816488;-63
2023/01/17 11:19:34;;;;;;;;;5.00;4.00;;;;;-146.39;100.00;62182.44;6318628;20;2749235;-64
2023/01/17 11:22:06;;;;;;;;;4.00;4.00;;;;;-146.39;100.00;62182.44;6284679;20;2749243;-62
2023/01/17 11:24:41;;;;;;;;;0.00;0.00;;;;;-146.39;100.00;62182.44;6303085;20;1787372;-64
2023/01/17 11:27:29;;;;;;;;;5.00;3.50;;;;;-146.39;100.00;62182.44;6315792;20;2756574;-64
2023/01/17 11:30:17;;;;;;;;;5.00;3.50;;;;;-146.39;100.00;62182.44;6286691;20;2735775;-64
2023/01/17 11:33:07;;;;;;;;;3.50;2.00;;;;;-146.39;100.00;62182.44;6285902;20;2753400;-64
2023/01/17 11:35:43;;;;;;;;;3.00;3.00;;;;;-146.39;100.00;62182.44;6286644;20;2741930;-64
2023/01/17 11:38:20;;;;;;;;;3.00;2.00;;;;;-146.39;100.00;62182.44;6285584;20;2753589;-64
2023/01/17 11:40:50;;;;;;;;;3.00;3.00;;;;;-146.39;100.00;62182.44;6280181;20;2751323;-66
2023/01/17 11:43:26;;;;;;;;;4.00;4.00;;;;;-146.39;100.00;62182.44;6302998;20;1806451;-66
2023/01/17 11:46:14;;;;;;;;;2.00;2.00;;;;;-146.39;100.00;62182.44;6316302;20;2738820;-66
2023/01/17 11:48:58;;;;;;;;;4.00;2.00;;;;;-146.39;100.00;62182.44;6286412;20;2750312;-65
2023/01/17 11:51:34;;;;;;;;;2.00;2.00;;;;;-146.39;100.00;62182.44;6283193;20;2748234;-65
2023/01/17 11:54:37;;;;;;;;;5.00;4.00;;;;;-146.39;100.00;62182.44;6279908;20;2752522;-66
2023/01/17 11:57:33;;;;;;;;;5.50;3.00;;;;;-146.39;100.00;62182.44;6282831;20;2729602;-67
2023/01/17 12:00:36;;;;;;;;;3.75;3.75;;;;;-146.39;100.00;62182.44;6299885;20;1814643;-66
2023/01/17 12:04:02;;;;;;;;;6.00;3.00;;;;;-146.39;100.00;62182.44;6315475;20;2738858;-64
2023/01/17 12:07:13;;;;;;;;;4.00;4.00;;;;;-146.39;100.00;62182.44;6303662;20;1820207;-65
2023/01/17 12:10:21;;;;;;;;;5.00;4.00;;;;;-146.39;100.00;62182.44;6321115;20;2754626;-65
2023/01/17 12:17:01;;;;;;;;;7.00;3.00;;;;;-146.39;100.00;62182.44;6283361;20;2756521;-65
2023/01/17 12:20:05;;;;;;;;;4.00;2.00;;;;;-146.39;100.00;62182.44;6282609;20;2756108;-67
2023/01/17 12:23:12;;;;;;;;;2.00;2.00;;;;;-146.39;100.00;62182.44;6283454;20;2744040;-67
2023/01/17 12:26:05;;;;;;;;;3.00;3.00;;;;;-146.39;100.00;62182.44;6297358;20;1804554;-65
2023/01/17 12:29:15;;;;;;;;;1.00;1.00;;;;;-146.39;100.00;62182.44;6314596;20;2468020;-66
2023/01/17 12:32:34;;;;;;;;;3.25;2.00;;;;;-146.39;100.00;62182.44;6296855;20;1811933;-65
2023/01/17 12:35:17;;;;;;;;;5.00;3.00;;;;;-146.39;100.00;62182.44;6309023;20;2748304;-64
2023/01/17 12:38:14;;;;;;;;;4.00;2.50;;;;;-146.39;100.00;62182.44;6302029;20;1811889;-65
2023/01/17 12:41:27;;;;;;;;;2.00;2.00;;;;;-146.39;100.00;62182.44;6312810;20;2744182;-66
2023/01/17 12:44:00;;;;;;;;;3.25;3.25;;;;;-146.39;100.00;62182.44;6297372;20;1817154;-65
2023/01/17 12:46:48;;;;;;;;;2.50;2.50;;;;;-146.39;100.00;62182.44;6310935;20;2745494;-65
2023/01/17 12:49:26;;;;;;;;;2.00;2.00;;;;;-146.39;100.00;62182.44;6293090;20;1815654;-66
2023/01/17 12:52:31;;;;;;;;;2.50;2.50;;;;;-146.39;100.00;62182.44;6310546;20;2752583;-67
2023/01/17 12:55:08;;;;;;;;;5.00;3.00;;;;;-146.39;100.00;62182.44;6284729;20;2741968;-66